Time;durP1;ratioP1;P1;durP2;ratioP2;P2;SDS_P1;SDS_P2;PMS_P1;PMS_P2;Temp;Humidity;BMP_temperature;BMP_pressure;BME280_temperature;BME280_humidity;BME280_pressure;Samples;Min_cycle;Max_cycle;Signal;HPM_P1;HPM_P2
2022/01/24 00:01:17;;;;;;;;;;;4.50;94.90;;;;;;5004115;28;20238;-74
2022/01/24 00:03:43;;;;;;;;;;;4.50;94.60;;;;;;5004816;28;19909;-73
2022/01/24 00:06:12;;;;;;;;;;;4.50;94.50;;;;;;5004593;28;19968;-74
2022/01/24 00:08:38;;;;;;;;;;;4.40;94.60;;;;;;5005252;28;19916;-74
2022/01/24 00:11:09;;;;;;;;;;;4.30;94.90;;;;;;5021902;28;19909;-74
2022/01/24 00:26:53;;;;;;;;;;;4.40;95.10;;;;;;5008075;28;20119;-73
2022/01/24 00:29:20;;;;;;;;;;;4.40;95.10;;;;;;5008173;28;19910;-73
2022/01/24 00:31:46;;;;;;;;;;;4.40;95.10;;;;;;5023975;28;20140;-74
2022/01/24 00:34:12;;;;;;;;;;;4.40;95.10;;;;;;5007996;28;19909;-74
2022/01/24 00:36:39;;;;;;;;;;;4.50;94.90;;;;;;5024269;28;20401;-74
2022/01/24 00:39:04;;;;;;;;;;;4.60;94.70;;;;;;5007957;28;20093;-74
2022/01/24 00:41:35;;;;;;;;;;;4.60;94.50;;;;;;5007678;28;19993;-73
2022/01/24 00:46:38;;;;;;;;;;;4.40;95.00;;;;;;5007308;28;19920;-74
2022/01/24 00:57:03;;;;;;;;;;;4.40;95.00;;;;;;5025050;28;20175;-74
2022/01/24 00:59:29;;;;;;;;;;;4.50;94.80;;;;;;4991414;28;19936;-74
2022/01/24 01:01:55;;;;;;;;;;;4.40;95.00;;;;;;5024338;28;19917;-74
2022/01/24 01:04:25;;;;;;;;;;;4.40;95.10;;;;;;4991299;28;20235;-73
2022/01/24 01:06:52;;;;;;;;;;;4.40;95.00;;;;;;4991683;28;19924;-74
2022/01/24 01:20:35;;;;;;;;;;;4.20;95.10;;;;;;4979353;28;19940;-73
2022/01/24 01:23:00;;;;;;;;;;;4.20;95.40;;;;;;5024396;28;19975;-73
2022/01/24 01:25:26;;;;;;;;;;;4.10;95.50;;;;;;5024416;28;20204;-72
2022/01/24 01:27:53;;;;;;;;;;;4.10;95.60;;;;;;5024242;28;19952;-72
2022/01/24 01:30:24;;;;;;;;;;;4.10;95.70;;;;;;5022956;28;19916;-73
2022/01/24 01:35:38;;;;;;;;;;;4.10;95.90;;;;;;5024092;28;19985;-73
2022/01/24 01:54:30;;;;;;;;;;;4.10;96.00;;;;;;5023262;28;19971;-73
2022/01/24 01:56:56;;;;;;;;;;;4.20;95.90;;;;;;4992845;28;19971;-73
2022/01/24 01:59:21;;;;;;;;;;;4.20;95.90;;;;;;4990337;28;20196;-73
2022/01/24 02:01:47;;;;;;;;;;;4.20;95.90;;;;;;5022185;28;19980;-73
2022/01/24 02:04:14;;;;;;;;;;;4.10;96.00;;;;;;5022646;28;20235;-72
2022/01/24 02:06:40;;;;;;;;;;;4.10;96.20;;;;;;5006427;28;19916;-72
2022/01/24 02:09:11;;;;;;;;;;;4.10;96.30;;;;;;5023730;28;19917;-73
2022/01/24 02:11:36;;;;;;;;;;;4.10;96.30;;;;;;5022446;28;19960;-72
2022/01/24 02:14:06;;;;;;;;;;;4.00;96.50;;;;;;5023670;28;19973;-72
2022/01/24 02:16:56;;;;;;;;;;;4.00;96.50;;;;;;5006470;28;19948;-72
2022/01/24 02:22:37;;;;;;;;;;;4.00;96.50;;;;;;5023124;28;20286;-72
2022/01/24 02:25:05;;;;;;;;;;;4.10;96.50;;;;;;5023145;28;20147;-72
2022/01/24 02:27:42;;;;;;;;;;;4.00;96.50;;;;;;4977066;28;19916;-72
2022/01/24 02:32:38;;;;;;;;;;;4.00;96.60;;;;;;5005702;28;19910;-73
2022/01/24 02:35:05;;;;;;;;;;;4.00;96.70;;;;;;5005898;28;19976;-73
2022/01/24 02:37:31;;;;;;;;;;;4.00;96.60;;;;;;5060203;23;19933;-75
2022/01/24 02:40:10;;;;;;;;;;;4.00;96.50;;;;;;5070274;28;19913;-74
2022/01/24 02:48:25;;;;;;;;;;;4.10;96.50;;;;;;5067878;28;19932;-74
2022/01/24 02:53:43;;;;;;;;;;;4.10;96.40;;;;;;5051683;28;19926;-74
2022/01/24 02:56:09;;;;;;;;;;;4.10;96.40;;;;;;5047496;28;19917;-75
2022/01/24 02:58:35;;;;;;;;;;;4.10;96.50;;;;;;5062732;28;20175;-74
2022/01/24 03:01:01;;;;;;;;;;;4.10;96.50;;;;;;5046539;28;19968;-75
2022/01/24 03:03:26;;;;;;;;;;;4.10;96.50;;;;;;5046529;28;20253;-75
2022/01/24 03:05:52;;;;;;;;;;;4.10;96.50;;;;;;5063896;28;19982;-76
2022/01/24 03:08:21;;;;;;;;;;;4.10;96.50;;;;;;5051291;28;19917;-75
2022/01/24 03:10:48;;;;;;;;;;;4.20;96.30;;;;;;5029194;28;20211;-75
2022/01/24 03:15:43;;;;;;;;;;;4.20;96.40;;;;;;5045177;28;20169;-75
2022/01/24 03:18:10;;;;;;;;;;;4.10;96.40;;;;;;5028730;28;19923;-75
2022/01/24 03:20:36;;;;;;;;;;;4.10;96.50;;;;;;5053385;28;20111;-75
2022/01/24 03:23:02;;;;;;;;;;;4.10;96.50;;;;;;5061415;28;19919;-74
2022/01/24 03:25:28;;;;;;;;;;;4.10;96.60;;;;;;5047296;28;19924;-74
2022/01/24 03:27:53;;;;;;;;;;;4.10;96.60;;;;;;5047007;28;19974;-74
2022/01/24 03:30:19;;;;;;;;;;;4.10;96.70;;;;;;5063602;28;20195;-74
2022/01/24 03:32:45;;;;;;;;;;;4.20;96.60;;;;;;5063543;28;19916;-75
2022/01/24 03:35:10;;;;;;;;;;;4.20;96.60;;;;;;5064560;28;19912;-75
2022/01/24 03:37:36;;;;;;;;;;;4.10;96.80;;;;;;5058419;28;19924;-75
2022/01/24 03:40:06;;;;;;;;;;;4.10;97.00;;;;;;5050100;28;19982;-75
2022/01/24 03:42:32;;;;;;;;;;;4.10;97.00;;;;;;5038704;28;19913;-75
2022/01/24 03:45:01;;;;;;;;;;;4.10;97.00;;;;;;5063760;28;20182;-75
2022/01/24 03:50:09;;;;;;;;;;;4.10;97.10;;;;;;5064855;28;19920;-75
2022/01/24 03:52:34;;;;;;;;;;;4.10;97.20;;;;;;5047060;28;20255;-74
2022/01/24 03:55:01;;;;;;;;;;;4.10;97.10;;;;;;5064037;28;19916;-74
2022/01/24 03:57:27;;;;;;;;;;;4.10;97.20;;;;;;5064600;28;19936;-74
2022/01/24 03:59:53;;;;;;;;;;;4.10;97.10;;;;;;5063560;28;19915;-76
2022/01/24 04:02:21;;;;;;;;;;;4.10;97.10;;;;;;5064783;28;20133;-76
2022/01/24 04:04:47;;;;;;;;;;;4.10;97.20;;;;;;5051686;28;19944;-76
2022/01/24 04:07:12;;;;;;;;;;;4.20;97.00;;;;;;5048308;28;19909;-76
2022/01/24 04:09:40;;;;;;;;;;;4.20;96.90;;;;;;5029811;28;20417;-75
2022/01/24 04:12:08;;;;;;;;;;;4.10;97.00;;;;;;5045666;28;19909;-76
2022/01/24 04:22:15;;;;;;;;;;;4.10;97.20;;;;;;5047449;28;19913;-75
2022/01/24 04:24:42;;;;;;;;;;;4.10;97.20;;;;;;5030862;28;19947;-75
2022/01/24 04:27:08;;;;;;;;;;;4.10;97.00;;;;;;5045539;28;20107;-75
2022/01/24 04:29:34;;;;;;;;;;;4.10;97.10;;;;;;5046114;28;19960;-75
2022/01/24 04:31:59;;;;;;;;;;;4.00;97.10;;;;;;5047366;28;20125;-75
2022/01/24 04:34:25;;;;;;;;;;;4.00;97.10;;;;;;5046216;28;19916;-75
2022/01/24 04:36:51;;;;;;;;;;;4.00;97.20;;;;;;5046740;28;19909;-75
2022/01/24 04:39:17;;;;;;;;;;;4.00;97.30;;;;;;5045554;28;19909;-75
2022/01/24 04:41:46;;;;;;;;;;;4.00;97.40;;;;;;5045177;28;19936;-76
2022/01/24 04:54:56;;;;;;;;;;;3.90;97.50;;;;;;5025791;28;19985;-75
2022/01/24 04:57:23;;;;;;;;;;;4.00;97.30;;;;;;5025633;28;19909;-75
2022/01/24 04:59:50;;;;;;;;;;;4.00;97.30;;;;;;5024627;28;19928;-75
2022/01/24 05:02:17;;;;;;;;;;;3.90;97.40;;;;;;5007965;28;19921;-75
2022/01/24 05:04:43;;;;;;;;;;;3.90;97.50;;;;;;5007769;28;19973;-76
2022/01/24 05:07:08;;;;;;;;;;;3.90;97.60;;;;;;5024714;28;20252;-75
2022/01/24 05:09:42;;;;;;;;;;;4.00;97.50;;;;;;5025640;28;20262;-75
2022/01/24 05:12:28;;;;;;;;;;;4.00;97.40;;;;;;5009182;28;19916;-75
2022/01/24 05:25:52;;;;;;;;;;;4.10;97.30;;;;;;5026722;28;19916;-76
2022/01/24 05:28:18;;;;;;;;;;;4.00;97.50;;;;;;5026126;28;20200;-76
2022/01/24 05:30:43;;;;;;;;;;;4.00;97.50;;;;;;5025792;28;19917;-76
2022/01/24 05:33:09;;;;;;;;;;;4.00;97.50;;;;;;5009859;28;19952;-76
2022/01/24 05:35:35;;;;;;;;;;;4.00;97.50;;;;;;5009504;28;19910;-74
2022/01/24 05:38:01;;;;;;;;;;;4.00;97.50;;;;;;5024809;28;19913;-74
2022/01/24 05:40:26;;;;;;;;;;;4.00;97.50;;;;;;5026528;28;19916;-72
2022/01/24 05:42:52;;;;;;;;;;;4.00;97.70;;;;;;5035806;28;19913;-73
2022/01/24 05:45:18;;;;;;;;;;;4.00;97.70;;;;;;5027477;28;19920;-72
2022/01/24 05:47:43;;;;;;;;;;;4.10;97.60;;;;;;5041260;28;19949;-71
2022/01/24 05:50:09;;;;;;;;;;;4.10;97.70;;;;;;5026254;28;19920;-70
2022/01/24 05:52:35;;;;;;;;;;;4.10;97.50;;;;;;5024531;28;19910;-70
2022/01/24 05:55:01;;;;;;;;;;;4.00;97.50;;;;;;5024688;28;19981;-70
2022/01/24 05:57:27;;;;;;;;;;;4.00;97.60;;;;;;5025505;28;19909;-70
2022/01/24 05:59:52;;;;;;;;;;;3.90;97.70;;;;;;5026116;28;20208;-71
2022/01/24 06:02:18;;;;;;;;;;;4.00;97.80;;;;;;5025863;28;19963;-71
2022/01/24 06:04:44;;;;;;;;;;;4.00;97.80;;;;;;5026080;28;20216;-70
2022/01/24 06:07:10;;;;;;;;;;;4.10;97.50;;;;;;5009123;28;19917;-70
2022/01/24 06:09:35;;;;;;;;;;;4.00;97.40;;;;;;5025487;28;19973;-71
2022/01/24 06:12:01;;;;;;;;;;;4.00;97.50;;;;;;5025103;28;20116;-71
2022/01/24 06:14:27;;;;;;;;;;;4.00;97.60;;;;;;5026622;28;19955;-70
2022/01/24 06:16:52;;;;;;;;;;;4.00;97.70;;;;;;5031141;28;20243;-70
2022/01/24 06:19:18;;;;;;;;;;;4.00;97.60;;;;;;5025672;28;19983;-70
2022/01/24 06:21:45;;;;;;;;;;;4.10;97.60;;;;;;5033936;28;19925;-70
2022/01/24 06:24:11;;;;;;;;;;;4.00;97.50;;;;;;5026366;28;19998;-69
2022/01/24 06:26:38;;;;;;;;;;;4.00;97.60;;;;;;5023665;28;19915;-71
2022/01/24 06:29:03;;;;;;;;;;;4.00;97.60;;;;;;5024148;28;19913;-70
2022/01/24 06:31:29;;;;;;;;;;;4.00;97.60;;;;;;5024885;28;19940;-70
2022/01/24 06:33:55;;;;;;;;;;;4.10;97.50;;;;;;5025399;28;19913;-71
2022/01/24 06:36:20;;;;;;;;;;;4.20;97.10;;;;;;5030881;28;19919;-71
2022/01/24 06:38:46;;;;;;;;;;;4.20;97.00;;;;;;5032202;28;19920;-72
2022/01/24 06:41:17;;;;;;;;;;;4.20;97.30;;;;;;5045065;28;19943;-72
2022/01/24 06:43:43;;;;;;;;;;;4.10;97.30;;;;;;5044539;28;20160;-72
2022/01/24 06:46:09;;;;;;;;;;;4.20;97.40;;;;;;5045885;28;19917;-72
2022/01/24 06:48:34;;;;;;;;;;;4.20;97.40;;;;;;5046102;28;19941;-72
2022/01/24 06:51:00;;;;;;;;;;;4.20;97.40;;;;;;5046248;28;19976;-72
2022/01/24 06:53:26;;;;;;;;;;;4.10;97.50;;;;;;5045635;28;19909;-71
2022/01/24 06:55:51;;;;;;;;;;;4.10;97.60;;;;;;5047338;28;19920;-72
2022/01/24 06:58:18;;;;;;;;;;;4.10;97.30;;;;;;5045412;28;19955;-72
2022/01/24 07:00:44;;;;;;;;;;;4.20;97.40;;;;;;5028390;28;19939;-70
2022/01/24 07:03:09;;;;;;;;;;;4.10;97.30;;;;;;5043516;28;19913;-72
2022/01/24 07:05:35;;;;;;;;;;;4.10;97.30;;;;;;5044543;28;19909;-72
2022/01/24 07:08:01;;;;;;;;;;;4.10;97.50;;;;;;5045238;28;19936;-71
2022/01/24 07:10:27;;;;;;;;;;;4.10;97.50;;;;;;5045485;28;19909;-71
2022/01/24 07:12:53;;;;;;;;;;;4.10;97.20;;;;;;5028417;28;19909;-71
2022/01/24 07:15:22;;;;;;;;;;;4.20;97.00;;;;;;5045764;28;19924;-75
2022/01/24 07:20:13;;;;;;;;;;;4.30;96.70;;;;;;5044166;28;19921;-75
2022/01/24 07:22:39;;;;;;;;;;;4.30;96.40;;;;;;5043287;28;20024;-75
2022/01/24 07:25:05;;;;;;;;;;;4.30;96.10;;;;;;5045500;28;19909;-75
2022/01/24 07:27:30;;;;;;;;;;;4.40;96.10;;;;;;5027736;28;19909;-76
2022/01/24 07:29:58;;;;;;;;;;;4.40;95.90;;;;;;5044722;28;19916;-76
2022/01/24 07:32:23;;;;;;;;;;;4.40;95.70;;;;;;5045441;28;19917;-76
2022/01/24 07:34:50;;;;;;;;;;;4.40;95.70;;;;;;5027574;28;19909;-75
2022/01/24 07:37:16;;;;;;;;;;;4.40;95.70;;;;;;5045512;28;19913;-75
2022/01/24 07:39:42;;;;;;;;;;;4.40;95.40;;;;;;5047533;28;19909;-76
2022/01/24 07:42:16;;;;;;;;;;;4.40;95.10;;;;;;5031538;28;19913;-75
2022/01/24 07:44:42;;;;;;;;;;;4.50;95.10;;;;;;5048931;28;19945;-75
2022/01/24 07:47:08;;;;;;;;;;;4.40;95.10;;;;;;5047841;28;19955;-75
2022/01/24 07:49:34;;;;;;;;;;;4.40;94.80;;;;;;5048058;28;19917;-75
2022/01/24 07:52:00;;;;;;;;;;;4.40;95.00;;;;;;5051190;28;19909;-76
2022/01/24 07:54:26;;;;;;;;;;;4.40;95.20;;;;;;5050043;28;19909;-75
2022/01/24 07:56:52;;;;;;;;;;;4.50;95.10;;;;;;5051828;28;19916;-75
2022/01/24 07:59:19;;;;;;;;;;;4.60;95.00;;;;;;5051209;28;20031;-75
2022/01/24 08:01:46;;;;;;;;;;;4.60;94.80;;;;;;5049535;28;19920;-76
2022/01/24 08:04:12;;;;;;;;;;;4.50;94.70;;;;;;5050511;28;20060;-75
2022/01/24 08:06:38;;;;;;;;;;;4.50;94.50;;;;;;5050882;28;19916;-75
2022/01/24 08:09:05;;;;;;;;;;;4.50;94.60;;;;;;5049655;28;20211;-76
2022/01/24 08:11:31;;;;;;;;;;;4.50;94.30;;;;;;5046175;28;19913;-76
2022/01/24 08:13:57;;;;;;;;;;;4.50;94.50;;;;;;5029819;28;20204;-76
2022/01/24 08:16:23;;;;;;;;;;;4.50;94.60;;;;;;5046214;28;19952;-75
2022/01/24 08:18:51;;;;;;;;;;;4.50;94.70;;;;;;5041092;28;19937;-75
2022/01/24 08:21:18;;;;;;;;;;;4.50;94.60;;;;;;5024392;28;19916;-76
2022/01/24 08:23:44;;;;;;;;;;;4.60;94.40;;;;;;5031577;28;20203;-75
2022/01/24 08:26:09;;;;;;;;;;;4.60;93.90;;;;;;5044424;28;19919;-76
2022/01/24 08:28:35;;;;;;;;;;;4.60;94.00;;;;;;5060775;28;19947;-76
2022/01/24 08:31:01;;;;;;;;;;;4.60;94.00;;;;;;5043973;28;19947;-76
2022/01/24 08:33:27;;;;;;;;;;;4.60;93.80;;;;;;5030738;28;20204;-75
2022/01/24 08:35:52;;;;;;;;;;;4.60;93.70;;;;;;5025480;28;19910;-75
2022/01/24 08:38:21;;;;;;;;;;;4.50;93.90;;;;;;5023932;28;19921;-76
2022/01/24 08:40:50;;;;;;;;;;;4.60;93.80;;;;;;5029393;28;19952;-76
2022/01/24 08:43:24;;;;;;;;;;;4.60;93.80;;;;;;5044162;28;19913;-75
2022/01/24 08:45:58;;;;;;;;;;;4.60;93.70;;;;;;5044334;28;19909;-75
2022/01/24 08:48:24;;;;;;;;;;;4.70;93.60;;;;;;5055627;28;19927;-75
2022/01/24 08:50:51;;;;;;;;;;;4.60;93.40;;;;;;5043875;28;20195;-75
2022/01/24 08:53:17;;;;;;;;;;;4.60;93.40;;;;;;5024377;28;20208;-75
2022/01/24 08:55:43;;;;;;;;;;;4.60;93.50;;;;;;5060539;28;19940;-74
2022/01/24 08:58:13;;;;;;;;;;;4.60;93.60;;;;;;5043675;28;19917;-75
2022/01/24 09:00:39;;;;;;;;;;;4.50;93.80;;;;;;5059593;28;19917;-75
2022/01/24 09:03:05;;;;;;;;;;;4.60;93.80;;;;;;5043614;28;19920;-75
2022/01/24 09:05:34;;;;;;;;;;;4.60;93.80;;;;;;5044886;28;19917;-75
2022/01/24 09:08:00;;;;;;;;;;;4.60;93.70;;;;;;5039759;28;20211;-75
2022/01/24 09:10:26;;;;;;;;;;;4.60;93.50;;;;;;5060352;28;19955;-75
2022/01/24 09:12:52;;;;;;;;;;;4.60;93.80;;;;;;5043886;28;19944;-76
2022/01/24 09:15:18;;;;;;;;;;;4.50;93.80;;;;;;5059690;28;19913;-74
2022/01/24 09:17:44;;;;;;;;;;;4.50;93.90;;;;;;5059635;28;19917;-74
2022/01/24 09:20:10;;;;;;;;;;;4.50;94.10;;;;;;5027473;28;20210;-74
2022/01/24 09:22:36;;;;;;;;;;;4.50;94.20;;;;;;5027616;28;20120;-75
2022/01/24 09:25:02;;;;;;;;;;;4.60;94.30;;;;;;5043943;28;19976;-75
2022/01/24 09:27:30;;;;;;;;;;;4.60;94.40;;;;;;5027496;28;20451;-75
2022/01/24 09:29:56;;;;;;;;;;;4.60;94.30;;;;;;5045563;28;20007;-74
2022/01/24 09:32:23;;;;;;;;;;;4.60;94.10;;;;;;5043770;28;20124;-75
2022/01/24 09:34:48;;;;;;;;;;;4.80;93.90;;;;;;5027711;28;20489;-75
2022/01/24 09:37:14;;;;;;;;;;;4.80;93.50;;;;;;5043759;28;19921;-75
2022/01/24 09:39:40;;;;;;;;;;;4.80;93.30;;;;;;5043758;28;19909;-75
2022/01/24 09:42:06;;;;;;;;;;;4.70;93.30;;;;;;5043868;28;19940;-75
2022/01/24 09:44:33;;;;;;;;;;;4.70;93.10;;;;;;5043960;28;19921;-75
2022/01/24 09:46:58;;;;;;;;;;;4.70;93.20;;;;;;5024153;28;19931;-75
2022/01/24 09:49:24;;;;;;;;;;;4.70;93.00;;;;;;5029943;28;20111;-74
2022/01/24 09:51:50;;;;;;;;;;;4.60;93.10;;;;;;5027015;28;19916;-74
2022/01/24 09:54:16;;;;;;;;;;;4.70;93.00;;;;;;5043786;28;19913;-75
2022/01/24 09:56:42;;;;;;;;;;;4.70;93.00;;;;;;5043487;28;19909;-75
2022/01/24 09:59:07;;;;;;;;;;;4.80;93.00;;;;;;5026195;28;19916;-75
2022/01/24 10:01:33;;;;;;;;;;;4.80;93.20;;;;;;5026011;28;20354;-75
2022/01/24 10:04:05;;;;;;;;;;;4.80;93.10;;;;;;5043184;28;19971;-75
2022/01/24 10:06:56;;;;;;;;;;;4.80;93.00;;;;;;5044150;28;19988;-75
2022/01/24 10:09:28;;;;;;;;;;;4.80;93.20;;;;;;5043817;28;19956;-75
2022/01/24 10:12:17;;;;;;;;;;;4.80;93.10;;;;;;5042839;28;19924;-75
2022/01/24 10:17:31;;;;;;;;;;;4.90;92.90;;;;;;5037494;28;20411;-75
2022/01/24 10:19:56;;;;;;;;;;;4.90;93.00;;;;;;5024828;28;19909;-75
2022/01/24 10:22:23;;;;;;;;;;;5.00;92.90;;;;;;5023491;28;19914;-76
2022/01/24 10:24:51;;;;;;;;;;;5.00;92.70;;;;;;5023416;28;19917;-75
2022/01/24 10:27:18;;;;;;;;;;;5.10;92.60;;;;;;5007227;28;19909;-75
2022/01/24 10:29:51;;;;;;;;;;;5.10;92.10;;;;;;5006978;28;19910;-75
2022/01/24 10:32:42;;;;;;;;;;;5.10;92.10;;;;;;5022215;28;19984;-75
2022/01/24 10:35:31;;;;;;;;;;;5.00;92.10;;;;;;5022902;28;19980;-75
2022/01/24 10:38:29;;;;;;;;;;;5.00;92.40;;;;;;5023738;28;19920;-75
2022/01/24 10:43:41;;;;;;;;;;;5.00;91.70;;;;;;5022857;28;19920;-74
2022/01/24 10:46:07;;;;;;;;;;;5.00;92.00;;;;;;5022837;28;19910;-75
2022/01/24 10:48:41;;;;;;;;;;;5.00;92.00;;;;;;5056023;28;20012;-75
2022/01/24 10:51:08;;;;;;;;;;;5.00;92.00;;;;;;5042034;28;19909;-75
2022/01/24 10:53:42;;;;;;;;;;;5.00;91.80;;;;;;5042105;28;19917;-75
2022/01/24 10:56:26;;;;;;;;;;;5.00;92.00;;;;;;5042109;28;19916;-75
2022/01/24 10:58:52;;;;;;;;;;;5.00;92.00;;;;;;5043333;28;19909;-74
2022/01/24 11:01:25;;;;;;;;;;;5.00;92.10;;;;;;5025299;28;20128;-74
2022/01/24 11:04:04;;;;;;;;;;;5.00;92.20;;;;;;5026300;28;19920;-74
2022/01/24 11:06:38;;;;;;;;;;;5.10;92.10;;;;;;5041909;28;19909;-75
2022/01/24 11:09:21;;;;;;;;;;;5.10;92.10;;;;;;5041638;28;19931;-73
2022/01/24 11:11:48;;;;;;;;;;;5.20;92.00;;;;;;5041712;28;19980;-75
2022/01/24 11:14:15;;;;;;;;;;;5.20;91.80;;;;;;5041821;28;19917;-74
2022/01/24 11:16:41;;;;;;;;;;;5.20;92.10;;;;;;5042079;28;19936;-75
2022/01/24 11:19:15;;;;;;;;;;;5.20;92.20;;;;;;5025310;28;20238;-75
2022/01/24 11:21:43;;;;;;;;;;;5.20;92.30;;;;;;5040878;28;20114;-75
2022/01/24 11:24:09;;;;;;;;;;;5.20;92.30;;;;;;5024634;28;19952;-75
2022/01/24 11:26:36;;;;;;;;;;;5.10;91.90;;;;;;5040840;28;20115;-75
2022/01/24 11:29:02;;;;;;;;;;;5.20;92.10;;;;;;5040779;28;19920;-76
2022/01/24 11:31:34;;;;;;;;;;;5.20;92.10;;;;;;5040390;28;19916;-76
2022/01/24 11:34:05;;;;;;;;;;;5.20;91.60;;;;;;5041387;28;19975;-76
2022/01/24 11:36:39;;;;;;;;;;;5.30;91.70;;;;;;5025593;28;20034;-75
2022/01/24 11:39:05;;;;;;;;;;;5.20;91.80;;;;;;5041273;28;20219;-75
2022/01/24 11:41:33;;;;;;;;;;;5.30;91.90;;;;;;5024549;28;20215;-76
2022/01/24 11:44:07;;;;;;;;;;;5.30;91.60;;;;;;5025021;28;19917;-74
2022/01/24 11:46:35;;;;;;;;;;;5.30;91.40;;;;;;5026350;28;20112;-75
2022/01/24 11:49:05;;;;;;;;;;;5.30;91.30;;;;;;5042583;28;19932;-74
2022/01/24 11:51:32;;;;;;;;;;;5.30;91.30;;;;;;5024862;28;19916;-76
2022/01/24 11:53:58;;;;;;;;;;;5.20;91.60;;;;;;5037490;28;19910;-75
2022/01/24 11:56:25;;;;;;;;;;;5.20;91.80;;;;;;5005149;28;19997;-75
2022/01/24 11:59:12;;;;;;;;;;;5.30;91.80;;;;;;5021025;28;20001;-74
2022/01/24 12:01:38;;;;;;;;;;;5.30;91.70;;;;;;5044497;28;19928;-75
2022/01/24 12:04:04;;;;;;;;;;;5.40;91.50;;;;;;5038327;28;19992;-75
2022/01/24 12:06:30;;;;;;;;;;;5.40;91.40;;;;;;5057599;28;20007;-75
2022/01/24 12:09:05;;;;;;;;;;;5.30;91.20;;;;;;5028018;28;19909;-75
2022/01/24 12:11:34;;;;;;;;;;;5.30;91.20;;;;;;5020956;28;19984;-75
2022/01/24 12:14:11;;;;;;;;;;;5.20;91.30;;;;;;5022168;28;19916;-75
2022/01/24 12:16:42;;;;;;;;;;;5.20;91.20;;;;;;5006603;28;20231;-74
2022/01/24 12:19:10;;;;;;;;;;;5.20;91.30;;;;;;5042182;28;19955;-76
2022/01/24 12:21:37;;;;;;;;;;;5.20;91.50;;;;;;5040725;28;20107;-76
2022/01/24 12:24:13;;;;;;;;;;;5.20;91.80;;;;;;5044081;28;19972;-76
2022/01/24 12:26:42;;;;;;;;;;;5.30;91.50;;;;;;5023561;28;19909;-76
2022/01/24 12:29:19;;;;;;;;;;;5.40;91.30;;;;;;5047245;28;19936;-76
2022/01/24 12:31:53;;;;;;;;;;;5.30;91.20;;;;;;5063591;28;20169;-76
2022/01/24 12:34:21;;;;;;;;;;;5.30;91.30;;;;;;5064162;28;19917;-75
2022/01/24 12:36:51;;;;;;;;;;;5.30;91.40;;;;;;5045930;28;19909;-75
2022/01/24 12:39:19;;;;;;;;;;;5.40;91.10;;;;;;5048481;28;19948;-76
2022/01/24 12:41:48;;;;;;;;;;;5.40;91.00;;;;;;5049099;28;19913;-76
2022/01/24 12:46:59;;;;;;;;;;;5.40;91.10;;;;;;5047566;28;20201;-76
2022/01/24 12:49:26;;;;;;;;;;;5.40;91.00;;;;;;5049293;28;19964;-77
2022/01/24 12:51:52;;;;;;;;;;;5.40;91.20;;;;;;5050881;28;20160;-76
2022/01/24 12:54:18;;;;;;;;;;;5.40;91.20;;;;;;5016864;28;19940;-77
2022/01/24 12:56:44;;;;;;;;;;;5.40;91.00;;;;;;5039844;28;19922;-76
2022/01/24 12:59:09;;;;;;;;;;;5.40;91.00;;;;;;5031613;28;19909;-76
2022/01/24 13:01:37;;;;;;;;;;;5.40;90.90;;;;;;5012436;28;19909;-76
2022/01/24 13:04:11;;;;;;;;;;;5.40;90.70;;;;;;5012607;28;19969;-76
2022/01/24 13:06:43;;;;;;;;;;;5.30;90.80;;;;;;5028175;28;19917;-75
2022/01/24 13:09:18;;;;;;;;;;;5.40;91.00;;;;;;5012573;28;19917;-75
2022/01/24 13:11:49;;;;;;;;;;;5.40;91.00;;;;;;5011916;28;19924;-75
2022/01/24 13:14:20;;;;;;;;;;;5.40;90.90;;;;;;5008413;28;20207;-74
2022/01/24 13:25:04;;;;;;;;;;;5.40;90.70;;;;;;5046580;28;19999;-76
2022/01/24 13:27:38;;;;;;;;;;;5.50;90.50;;;;;;5046714;28;19956;-77
2022/01/24 13:30:04;;;;;;;;;;;5.40;90.80;;;;;;5027509;28;19917;-76
2022/01/24 13:32:48;;;;;;;;;;;5.30;90.60;;;;;;5009063;28;20192;-76
2022/01/24 13:35:46;;;;;;;;;;;5.30;90.80;;;;;;5010169;28;19976;-76
2022/01/24 13:38:17;;;;;;;;;;;5.30;90.70;;;;;;5004183;28;19913;-76
2022/01/24 13:41:00;;;;;;;;;;;5.40;90.70;;;;;;5013006;28;19910;-76
2022/01/24 13:43:36;;;;;;;;;;;5.40;90.60;;;;;;5011531;28;19914;-76
2022/01/24 13:46:07;;;;;;;;;;;5.30;90.70;;;;;;5025718;28;19917;-72
2022/01/24 13:48:41;;;;;;;;;;;5.30;90.80;;;;;;5034373;28;19910;-74
2022/01/24 13:51:07;;;;;;;;;;;5.30;90.90;;;;;;5041491;28;20089;-69
2022/01/24 13:53:36;;;;;;;;;;;5.30;91.00;;;;;;5042931;28;19916;-69
2022/01/24 13:56:35;;;;;;;;;;;5.30;91.00;;;;;;5042454;28;19909;-69
2022/01/24 13:59:14;;;;;;;;;;;5.20;91.00;;;;;;5042296;28;19913;-69
2022/01/24 14:02:00;;;;;;;;;;;5.20;90.90;;;;;;5041119;28;19916;-69
2022/01/24 14:04:33;;;;;;;;;;;5.10;91.10;;;;;;5042670;28;20208;-69
2022/01/24 14:07:11;;;;;;;;;;;5.00;91.20;;;;;;5042511;28;20192;-69
2022/01/24 14:09:42;;;;;;;;;;;5.00;91.40;;;;;;5026027;28;19909;-69
2022/01/24 14:12:19;;;;;;;;;;;5.10;91.30;;;;;;5041105;28;19909;-69
2022/01/24 14:19:39;;;;;;;;;;;5.00;91.50;;;;;;5020974;28;19921;-69
2022/01/24 14:22:08;;;;;;;;;;;5.00;91.70;;;;;;5022096;28;19968;-70
2022/01/24 14:24:49;;;;;;;;;;;5.00;91.50;;;;;;5022328;28;19913;-69
2022/01/24 14:27:44;;;;;;;;;;;5.00;91.40;;;;;;5022557;28;19936;-70
2022/01/24 14:30:14;;;;;;;;;;;5.00;91.70;;;;;;5021200;28;19909;-69
2022/01/24 14:32:48;;;;;;;;;;;5.00;91.50;;;;;;5022420;28;19964;-70
2022/01/24 14:35:14;;;;;;;;;;;5.00;91.30;;;;;;5022269;28;19913;-70
2022/01/24 14:37:46;;;;;;;;;;;5.10;91.40;;;;;;5022041;28;19980;-70
2022/01/24 14:40:33;;;;;;;;;;;5.00;91.20;;;;;;5022093;28;19916;-70
2022/01/24 14:44:53;;;;;;;;;;;4.90;91.50;;;;;;5022261;28;19925;-70
2022/01/24 14:45:44;;;;;;;;;;;5.00;91.50;;;;;;5021820;28;19937;-70
2022/01/24 14:48:10;;;;;;;;;;;5.00;91.20;;;;;;5029492;28;20002;-69
2022/01/24 14:50:36;;;;;;;;;;;5.00;91.40;;;;;;5040334;28;19984;-69
2022/01/24 14:53:05;;;;;;;;;;;5.00;91.40;;;;;;5041588;28;20164;-70
2022/01/24 14:55:31;;;;;;;;;;;5.00;91.40;;;;;;5039873;28;20219;-70
2022/01/24 14:57:57;;;;;;;;;;;5.00;91.30;;;;;;5041800;28;19940;-70
2022/01/24 15:00:23;;;;;;;;;;;5.00;91.60;;;;;;5041601;28;19909;-70
2022/01/24 15:02:50;;;;;;;;;;;4.90;91.60;;;;;;5041191;28;19933;-70
2022/01/24 15:05:16;;;;;;;;;;;4.90;92.00;;;;;;5040316;28;19932;-69
2022/01/24 15:07:43;;;;;;;;;;;4.90;91.90;;;;;;5040133;28;19909;-70
2022/01/24 15:10:09;;;;;;;;;;;4.90;91.80;;;;;;5041315;28;19924;-70
2022/01/24 15:12:41;;;;;;;;;;;4.90;91.80;;;;;;5033933;28;19913;-70
2022/01/24 15:15:09;;;;;;;;;;;4.80;92.00;;;;;;5041529;28;20211;-70
2022/01/24 15:23:55;;;;;;;;;;;4.80;92.00;;;;;;5040557;28;19909;-70
2022/01/24 15:25:54;;;;;;;;;;;4.80;92.40;;;;;;5041340;28;19955;-69
2022/01/24 15:28:20;;;;;;;;;;;4.80;92.30;;;;;;5041191;28;19909;-69
2022/01/24 15:30:45;;;;;;;;;;;4.90;92.00;;;;;;5040545;28;19917;-70
2022/01/24 15:33:11;;;;;;;;;;;4.80;92.00;;;;;;5041601;28;19913;-70
2022/01/24 15:35:37;;;;;;;;;;;4.80;92.20;;;;;;5041287;28;19916;-70
2022/01/24 15:38:05;;;;;;;;;;;4.70;92.40;;;;;;5041134;28;20183;-71
2022/01/24 15:40:32;;;;;;;;;;;4.70;92.50;;;;;;5039194;28;20158;-71
2022/01/24 15:48:08;;;;;;;;;;;4.80;92.40;;;;;;5041163;28;19909;-71
2022/01/24 15:50:34;;;;;;;;;;;4.70;92.40;;;;;;5039714;28;19917;-71
2022/01/24 15:53:02;;;;;;;;;;;4.70;92.60;;;;;;5039983;28;19996;-71
2022/01/24 15:55:31;;;;;;;;;;;4.70;92.50;;;;;;5034826;28;20208;-71
2022/01/24 15:57:58;;;;;;;;;;;4.70;92.20;;;;;;5035916;28;19915;-71
2022/01/24 16:00:28;;;;;;;;;;;4.70;92.40;;;;;;5018895;28;19921;-70
2022/01/24 16:02:58;;;;;;;;;;;4.60;92.50;;;;;;5048448;28;19921;-71
2022/01/24 16:05:25;;;;;;;;;;;4.60;92.50;;;;;;5041673;28;19925;-71
2022/01/24 16:07:51;;;;;;;;;;;4.70;92.30;;;;;;5007532;28;19909;-71
2022/01/24 16:10:18;;;;;;;;;;;4.70;92.40;;;;;;5023505;28;19917;-71
2022/01/24 16:12:46;;;;;;;;;;;4.60;92.40;;;;;;5023502;28;19925;-71
2022/01/24 16:15:13;;;;;;;;;;;4.60;92.70;;;;;;5024920;28;19972;-71
2022/01/24 16:17:39;;;;;;;;;;;4.60;92.80;;;;;;5027456;28;19939;-71
2022/01/24 16:20:19;;;;;;;;;;;4.60;92.80;;;;;;5044861;28;19909;-71
2022/01/24 16:22:59;;;;;;;;;;;4.60;92.80;;;;;;5029052;28;20207;-71
2022/01/24 16:25:34;;;;;;;;;;;4.60;92.50;;;;;;5043844;28;19917;-71
2022/01/24 16:28:18;;;;;;;;;;;4.60;93.10;;;;;;5043929;28;20196;-71
2022/01/24 16:30:48;;;;;;;;;;;4.60;92.40;;;;;;5028748;28;20308;-71
2022/01/24 16:33:14;;;;;;;;;;;4.60;92.20;;;;;;5044328;28;20229;-71
2022/01/24 16:35:39;;;;;;;;;;;4.60;92.10;;;;;;5045337;28;19959;-71
2022/01/24 16:38:06;;;;;;;;;;;4.60;92.00;;;;;;5045206;28;19913;-71
2022/01/24 16:40:40;;;;;;;;;;;4.60;92.00;;;;;;5026710;28;19909;-69
2022/01/24 16:48:16;;;;;;;;;;;4.50;92.40;;;;;;5045019;28;20230;-71
2022/01/24 16:50:41;;;;;;;;;;;4.60;92.30;;;;;;5042205;28;19917;-71
2022/01/24 16:53:13;;;;;;;;;;;4.60;92.20;;;;;;5044684;28;20161;-71
2022/01/24 16:55:39;;;;;;;;;;;4.50;92.30;;;;;;5043835;28;19923;-70
2022/01/24 16:58:04;;;;;;;;;;;4.50;92.50;;;;;;5044821;28;19940;-71
2022/01/24 17:00:30;;;;;;;;;;;4.50;92.50;;;;;;5044682;28;19909;-71
2022/01/24 17:02:56;;;;;;;;;;;4.50;92.60;;;;;;5044425;28;19913;-71